createdAt,value
2024-03-01T00:00:24.683Z,7.16
2024-03-01T00:02:52.867Z,7.26
2024-03-01T00:05:21.747Z,7.42
2024-03-01T00:07:49.851Z,7.27
2024-03-01T00:10:18.716Z,7.25
2024-03-01T00:12:48.308Z,7.28
2024-03-01T00:15:16.696Z,7.39
2024-03-01T00:17:45.113Z,7.31
2024-03-01T00:20:15.521Z,7.36
2024-03-01T00:22:43.661Z,7.38
2024-03-01T00:25:14.189Z,7.57
2024-03-01T00:27:42.386Z,7.53
2024-03-01T00:30:12.931Z,7.43
2024-03-01T00:32:41.497Z,7.43
2024-03-01T00:35:10.790Z,7.45
2024-03-01T00:37:38.913Z,7.44
2024-03-01T00:40:08.551Z,7.34
2024-03-01T00:42:36.631Z,7.23
2024-03-01T00:45:05.665Z,7.36
2024-03-01T00:47:35.295Z,7.43
2024-03-01T00:50:03.561Z,7.14
2024-03-01T00:52:31.968Z,7.26
2024-03-01T00:55:00.403Z,7.25
2024-03-01T00:57:28.548Z,7.27
2024-03-01T00:59:56.686Z,7.19
2024-03-01T01:02:39.558Z,7.30
2024-03-01T01:05:11.472Z,7.32
2024-03-01T01:07:39.665Z,7.33
2024-03-01T01:10:09.415Z,7.37
2024-03-01T01:12:37.675Z,7.29
2024-03-01T01:15:06.449Z,7.33
2024-03-01T01:17:34.628Z,7.33
2024-03-01T01:20:04.660Z,7.26
2024-03-01T01:22:37.932Z,7.21
2024-03-01T01:25:07.456Z,7.34
2024-03-01T01:27:35.719Z,7.24
2024-03-01T01:30:04.979Z,7.19
2024-03-01T01:32:33.119Z,7.39
2024-03-01T01:35:01.367Z,7.42
2024-03-01T01:37:29.589Z,7.40
2024-03-01T01:40:00.523Z,7.56
2024-03-01T01:42:28.766Z,7.50
2024-03-01T01:44:56.529Z,7.30
2024-03-01T01:47:25.190Z,7.25
2024-03-01T01:49:53.470Z,7.12
2024-03-01T01:52:21.711Z,7.14
2024-03-01T01:54:50.042Z,7.16
2024-03-01T01:57:19.702Z,7.09
2024-03-01T01:59:48.741Z,6.96
2024-03-01T02:02:18.671Z,7.14
2024-03-01T02:04:47.225Z,7.07
2024-03-01T02:07:15.794Z,6.94
2024-03-01T02:09:44.553Z,6.97
2024-03-01T02:12:15.065Z,7.00
2024-03-01T02:14:46.344Z,7.15
2024-03-01T02:17:14.990Z,7.02
2024-03-01T02:19:43.695Z,7.05
2024-03-01T02:22:15.399Z,7.19
2024-03-01T02:24:45.138Z,7.11
2024-03-01T02:27:14.697Z,6.99
2024-03-01T02:29:43.345Z,6.97
2024-03-01T02:32:13.161Z,6.96
2024-03-01T02:34:41.379Z,6.90
2024-03-01T02:37:10.466Z,6.89
2024-03-01T02:39:38.943Z,6.84
2024-03-01T02:42:09.027Z,6.90
2024-03-01T02:44:37.264Z,6.95
2024-03-01T02:47:05.887Z,6.85
2024-03-01T02:49:34.220Z,6.61
2024-03-01T02:52:02.585Z,6.75
2024-03-01T02:54:31.063Z,6.64
2024-03-01T02:56:59.995Z,6.60
2024-03-01T02:59:29.453Z,6.60
2024-03-01T03:01:57.600Z,6.59
2024-03-01T03:04:25.845Z,6.73
2024-03-01T03:06:55.580Z,6.49
2024-03-01T03:09:27.238Z,6.58
2024-03-01T03:11:55.358Z,6.54
2024-03-01T03:14:23.644Z,6.56
2024-03-01T03:16:53.772Z,6.59
2024-03-01T03:19:21.929Z,6.50
2024-03-01T03:21:50.535Z,6.59
2024-03-01T03:24:18.757Z,6.59
2024-03-01T03:26:46.832Z,6.64
2024-03-01T03:29:15.390Z,6.85
2024-03-01T03:31:43.547Z,6.74
2024-03-01T03:34:13.308Z,6.98
2024-03-01T03:36:41.482Z,6.95
2024-03-01T03:39:10.406Z,6.93
2024-03-01T03:41:38.782Z,6.91
2024-03-01T03:44:07.073Z,7.05
2024-03-01T03:46:35.215Z,7.12
2024-03-01T03:49:03.474Z,7.14
2024-03-01T03:51:33.506Z,7.13
2024-03-01T03:54:05.866Z,7.24
2024-03-01T03:56:34.090Z,7.21
2024-03-01T03:59:02.716Z,7.17
2024-03-01T04:01:30.931Z,7.23
2024-03-01T04:03:59.075Z,7.29
2024-03-01T04:06:27.259Z,7.08
2024-03-01T04:08:57.159Z,7.11
2024-03-01T04:11:25.281Z,7.06
2024-03-01T04:13:53.415Z,7.07
2024-03-01T04:16:22.337Z,7.17
2024-03-01T04:18:50.763Z,7.17
2024-03-01T04:21:19.324Z,7.12
2024-03-01T04:23:47.477Z,7.10
2024-03-01T04:26:18.243Z,7.30
2024-03-01T04:28:47.186Z,7.32
2024-03-01T04:31:15.628Z,7.27
2024-03-01T04:33:44.198Z,7.36
2024-03-01T04:36:13.414Z,7.32
2024-03-01T04:38:41.748Z,7.32
2024-03-01T04:41:20.173Z,7.40
2024-03-01T04:43:48.859Z,7.34
2024-03-01T04:46:18.002Z,7.28
2024-03-01T04:48:46.080Z,7.17
2024-03-01T04:51:14.906Z,7.14
2024-03-01T04:53:43.276Z,7.26
2024-03-01T04:56:11.415Z,7.22
2024-03-01T04:58:41.524Z,7.11
2024-03-01T05:01:12.503Z,7.18
2024-03-01T05:03:45.504Z,7.18
2024-03-01T05:06:13.917Z,7.06
2024-03-01T05:08:42.114Z,7.14
2024-03-01T05:11:10.553Z,7.25
2024-03-01T05:13:40.322Z,7.21
2024-03-01T05:16:10.059Z,7.31
2024-03-01T05:18:38.269Z,7.17
2024-03-01T05:21:07.000Z,7.23
2024-03-01T05:23:35.411Z,7.27
2024-03-01T05:26:04.473Z,7.35
2024-03-01T05:28:33.750Z,7.40
2024-03-01T05:31:14.878Z,7.49
2024-03-01T05:33:49.736Z,7.40
2024-03-01T05:36:18.726Z,7.40
2024-03-01T05:38:46.839Z,7.45
2024-03-01T05:41:15.384Z,7.57
2024-03-01T05:43:43.650Z,7.54
2024-03-01T05:46:17.377Z,7.52
2024-03-01T05:48:47.255Z,7.56
2024-03-01T05:51:15.358Z,7.49
2024-03-01T05:53:44.014Z,7.47
2024-03-01T05:56:19.785Z,7.54
2024-03-01T05:58:48.551Z,7.72
2024-03-01T06:01:19.717Z,7.65
2024-03-01T06:03:48.606Z,7.74
2024-03-01T06:06:20.191Z,7.63
2024-03-01T06:08:51.029Z,7.69
2024-03-01T06:11:19.671Z,7.62
2024-03-01T06:13:47.901Z,7.71
2024-03-01T06:16:18.644Z,7.72
2024-03-01T06:18:47.348Z,7.60
2024-03-01T06:21:21.948Z,7.79
2024-03-01T06:23:50.089Z,7.54
2024-03-01T06:26:18.682Z,7.76
2024-03-01T06:28:49.756Z,7.67
2024-03-01T06:31:19.366Z,7.67
2024-03-01T06:33:47.568Z,7.62
2024-03-01T06:36:15.788Z,7.92
2024-03-01T06:38:44.464Z,7.81
2024-03-01T06:41:12.736Z,7.89
2024-03-01T06:43:41.134Z,8.00
2024-03-01T06:46:09.848Z,7.92
2024-03-01T06:48:42.316Z,7.97
2024-03-01T06:51:10.998Z,7.81
2024-03-01T06:53:39.348Z,7.96
2024-03-01T06:56:08.217Z,8.01
2024-03-01T06:58:36.928Z,8.01
2024-03-01T07:01:10.761Z,7.86
2024-03-01T07:03:41.206Z,8.04
2024-03-01T07:06:09.293Z,8.10
2024-03-01T07:08:37.428Z,7.93
2024-03-01T07:11:05.897Z,7.88
2024-03-01T07:13:34.684Z,8.08
2024-03-01T07:16:03.539Z,8.07
2024-03-01T07:18:32.136Z,7.92
2024-03-01T07:21:05.346Z,7.98
2024-03-01T07:23:34.237Z,7.81
2024-03-01T07:26:05.821Z,7.93
2024-03-01T07:28:36.389Z,7.88
2024-03-01T07:31:06.249Z,7.80
2024-03-01T07:33:34.463Z,7.87
2024-03-01T07:36:04.476Z,7.90
2024-03-01T07:38:33.230Z,7.95
2024-03-01T07:41:01.422Z,7.81
2024-03-01T07:43:30.272Z,8.03
2024-03-01T07:45:58.678Z,7.96
2024-03-01T07:48:27.231Z,7.91
2024-03-01T07:50:55.435Z,7.98
2024-03-01T07:53:25.029Z,8.02
2024-03-01T07:55:53.121Z,7.99
2024-03-01T07:58:22.517Z,8.02
2024-03-01T08:00:51.360Z,7.95
2024-03-01T08:03:19.512Z,7.93
2024-03-01T08:05:48.212Z,8.05
2024-03-01T08:08:16.989Z,7.92
2024-03-01T08:10:46.864Z,8.11
2024-03-01T08:13:18.945Z,8.06
2024-03-01T08:15:47.274Z,7.82
2024-03-01T08:18:20.127Z,7.99
2024-03-01T08:20:58.886Z,8.06
2024-03-01T08:23:28.031Z,8.02
2024-03-01T08:25:58.991Z,7.89
2024-03-01T08:28:30.041Z,8.01
2024-03-01T08:30:58.257Z,8.07
2024-03-01T08:33:27.408Z,7.98
2024-03-01T08:35:57.028Z,8.05
2024-03-01T08:38:59.272Z,8.01
2024-03-01T08:41:30.068Z,8.06
2024-03-01T08:43:59.624Z,8.08
2024-03-01T08:46:33.445Z,8.06
2024-03-01T08:49:05.152Z,8.23
2024-03-01T08:51:33.496Z,8.23
2024-03-01T08:54:07.169Z,8.09
2024-03-01T08:56:38.066Z,8.15
2024-03-01T08:59:35.284Z,8.25
2024-03-01T09:02:03.530Z,8.32
2024-03-01T09:04:33.390Z,8.14
2024-03-01T09:07:17.168Z,8.15
2024-03-01T09:09:45.455Z,8.12
2024-03-01T09:12:19.035Z,7.81
2024-03-01T09:14:47.183Z,7.94
2024-03-01T09:17:15.401Z,7.98
2024-03-01T09:19:46.433Z,7.99
2024-03-01T09:22:15.275Z,8.12
2024-03-01T09:24:44.345Z,8.30
2024-03-01T09:27:27.207Z,8.28
2024-03-01T09:29:55.528Z,8.25
2024-03-01T09:32:24.852Z,8.08
2024-03-01T09:34:53.106Z,8.03
2024-03-01T09:37:22.119Z,8.27
2024-03-01T09:39:50.772Z,8.02
2024-03-01T09:42:48.106Z,8.06
2024-03-01T09:45:24.952Z,8.06
2024-03-01T09:48:06.623Z,7.94
2024-03-01T09:50:40.995Z,7.99
2024-03-01T09:53:15.786Z,7.97
2024-03-01T09:55:47.240Z,7.94
2024-03-01T09:58:20.069Z,8.02
2024-03-01T10:00:53.683Z,8.03
2024-03-01T10:03:26.578Z,8.00
2024-03-01T10:06:15.175Z,8.07
2024-03-01T10:08:49.515Z,7.95
2024-03-01T10:11:26.425Z,8.00
2024-03-01T10:14:01.978Z,8.05
2024-03-01T10:16:39.533Z,8.27
2024-03-01T10:19:13.405Z,8.40
2024-03-01T10:21:47.258Z,8.60
2024-03-01T10:24:36.595Z,8.75
2024-03-01T10:27:07.689Z,8.94
2024-03-01T10:29:57.566Z,9.05
2024-03-01T10:32:36.945Z,8.86
2024-03-01T10:35:08.145Z,8.81
2024-03-01T10:37:54.869Z,8.69
2024-03-01T10:40:23.013Z,8.92
2024-03-01T10:42:56.238Z,8.91
2024-03-01T10:45:28.408Z,9.21
2024-03-01T10:47:57.028Z,9.14
2024-03-01T10:50:28.046Z,9.39
2024-03-01T10:53:00.018Z,9.38
2024-03-01T10:55:32.056Z,9.46
2024-03-01T10:58:04.214Z,9.52
2024-03-01T11:00:34.327Z,9.54
2024-03-01T11:03:09.629Z,9.65
2024-03-01T11:05:40.010Z,9.58
2024-03-01T11:08:14.084Z,9.72
2024-03-01T11:10:45.659Z,9.80
2024-03-01T11:13:18.511Z,10.06
2024-03-01T11:15:50.254Z,9.92
2024-03-01T11:18:22.370Z,9.95
2024-03-01T11:20:53.464Z,9.92
2024-03-01T11:23:23.183Z,10.09
2024-03-01T11:25:54.788Z,9.96
2024-03-01T11:28:24.998Z,10.25
2024-03-01T11:30:56.856Z,10.37
2024-03-01T11:33:25.394Z,10.21
2024-03-01T11:35:58.813Z,10.29
2024-03-01T11:38:35.942Z,10.44
2024-03-01T11:41:16.944Z,10.22
2024-03-01T11:43:52.843Z,10.44
2024-03-01T11:46:32.754Z,10.75
2024-03-01T11:49:11.910Z,10.60
2024-03-01T11:51:43.677Z,10.61
2024-03-01T11:54:36.709Z,10.64
2024-03-01T11:57:07.576Z,10.65
2024-03-01T11:59:46.335Z,10.62
2024-03-01T12:02:19.871Z,10.49
2024-03-01T12:05:04.825Z,10.22
2024-03-01T12:07:55.558Z,10.45
2024-03-01T12:10:27.251Z,10.59
2024-03-01T12:12:57.955Z,10.75
2024-03-01T12:15:29.308Z,10.90
2024-03-01T12:18:06.328Z,10.82
2024-03-01T12:20:37.494Z,10.75
2024-03-01T12:23:11.519Z,10.89
2024-03-01T12:25:40.480Z,11.38
2024-03-01T12:28:15.366Z,10.80
2024-03-01T12:31:03.487Z,10.87
2024-03-01T12:33:48.290Z,10.77
2024-03-01T12:36:22.723Z,10.75
2024-03-01T12:38:53.634Z,10.79
2024-03-01T12:41:28.398Z,10.79
2024-03-01T12:44:15.804Z,10.88
2024-03-01T12:46:59.130Z,10.80
2024-03-01T12:49:35.697Z,11.00
2024-03-01T12:52:08.753Z,11.13
2024-03-01T12:54:39.129Z,10.92
2024-03-01T12:57:15.216Z,10.70
2024-03-01T12:59:46.009Z,10.67
2024-03-01T13:02:30.966Z,11.05
2024-03-01T13:05:12.185Z,11.21
2024-03-01T13:07:40.723Z,11.31
2024-03-01T13:10:15.101Z,11.29
2024-03-01T13:12:44.052Z,11.12
2024-03-01T13:15:16.489Z,11.28
2024-03-01T13:17:48.264Z,11.15
2024-03-01T13:20:34.427Z,11.02
2024-03-01T13:23:09.744Z,11.13
2024-03-01T13:25:45.639Z,11.04
2024-03-01T13:28:16.008Z,11.06
2024-03-01T13:30:45.255Z,11.08
2024-03-01T13:33:25.807Z,11.01
2024-03-01T13:35:58.471Z,11.14
2024-03-01T13:38:31.341Z,11.06
2024-03-01T13:41:02.772Z,11.07
2024-03-01T13:43:34.852Z,11.35
2024-03-01T13:46:10.803Z,11.06
2024-03-01T13:48:40.469Z,11.12
2024-03-01T13:51:10.388Z,11.18
2024-03-01T13:53:39.238Z,11.35
2024-03-01T13:56:10.595Z,11.28
2024-03-01T13:58:41.031Z,11.49
2024-03-01T14:01:13.324Z,11.09
2024-03-01T14:03:54.244Z,11.21
2024-03-01T14:06:25.302Z,11.37
2024-03-01T14:08:53.634Z,10.99
2024-03-01T14:11:21.805Z,11.09
2024-03-01T14:13:52.843Z,11.12
2024-03-01T14:16:21.895Z,11.07
2024-03-01T14:18:50.491Z,10.98
2024-03-01T14:21:19.539Z,10.95
2024-03-01T14:23:49.040Z,10.69
2024-03-01T14:26:17.181Z,10.50
2024-03-01T14:28:50.870Z,10.64
2024-03-01T14:31:20.773Z,10.85
2024-03-01T14:33:59.176Z,10.94
2024-03-01T14:36:28.444Z,11.12
2024-03-01T14:38:58.388Z,10.96
2024-03-01T14:41:40.822Z,10.77
2024-03-01T14:44:10.511Z,10.69
2024-03-01T14:46:41.600Z,11.04
2024-03-01T14:49:17.568Z,10.70
2024-03-01T14:51:47.022Z,10.77
2024-03-01T14:54:20.490Z,10.85
2024-03-01T14:56:48.922Z,10.84
2024-03-01T14:59:18.340Z,10.94
2024-03-01T15:01:48.507Z,10.90
2024-03-01T15:04:17.359Z,10.82
2024-03-01T15:06:45.597Z,10.78
2024-03-01T15:09:13.742Z,10.72
2024-03-01T15:11:43.230Z,10.85
2024-03-01T15:14:11.951Z,10.77
2024-03-01T15:16:44.008Z,10.83
2024-03-01T15:19:16.189Z,11.00
2024-03-01T15:21:45.997Z,10.76
2024-03-01T15:24:19.386Z,11.03
2024-03-01T15:26:49.065Z,10.92
2024-03-01T15:29:17.267Z,11.09
2024-03-01T15:31:45.541Z,10.73
2024-03-01T15:34:17.317Z,10.98
2024-03-01T15:36:48.220Z,11.09
2024-03-01T15:39:16.724Z,10.87
2024-03-01T15:41:57.260Z,10.61
2024-03-01T15:44:53.454Z,10.54
2024-03-01T15:47:21.545Z,10.56
2024-03-01T15:49:49.771Z,10.47
2024-03-01T15:52:19.078Z,10.49
2024-03-01T15:54:47.264Z,10.38
2024-03-01T15:57:16.769Z,10.22
2024-03-01T15:59:46.696Z,10.06
2024-03-01T16:02:19.933Z,9.98
2024-03-01T16:04:49.323Z,10.16
2024-03-01T16:07:17.961Z,10.09
2024-03-01T16:09:46.797Z,10.04
2024-03-01T16:12:18.173Z,9.82
2024-03-01T16:14:49.578Z,9.98
2024-03-01T16:17:17.848Z,10.17
2024-03-01T16:19:46.979Z,10.05
2024-03-01T16:22:15.282Z,10.16
2024-03-01T16:24:52.257Z,9.86
2024-03-01T16:27:24.279Z,9.78
2024-03-01T16:29:53.895Z,9.72
2024-03-01T16:32:25.968Z,9.53
2024-03-01T16:34:54.233Z,9.58
2024-03-01T16:37:25.331Z,9.62
2024-03-01T16:39:54.325Z,9.48
2024-03-01T16:42:42.296Z,9.44
2024-03-01T16:45:16.437Z,9.39
2024-03-01T16:47:44.520Z,9.31
2024-03-01T16:50:12.687Z,9.33
2024-03-01T16:52:43.480Z,9.18
2024-03-01T16:55:36.862Z,9.26
2024-03-01T16:58:07.069Z,9.08
2024-03-01T17:00:35.204Z,9.23
2024-03-01T17:03:06.063Z,9.06
2024-03-01T17:05:39.882Z,9.02
2024-03-01T17:08:10.358Z,8.79
2024-03-01T17:10:40.903Z,8.79
2024-03-01T17:13:10.634Z,8.94
2024-03-01T17:15:38.709Z,8.80
2024-03-01T17:18:13.477Z,8.58
2024-03-01T17:20:41.680Z,8.60
2024-03-01T17:23:09.905Z,8.59
2024-03-01T17:25:38.044Z,8.55
2024-03-01T17:28:06.903Z,8.50
2024-03-01T17:30:35.418Z,8.43
2024-03-01T17:33:03.668Z,8.42
2024-03-01T17:35:33.344Z,8.48
2024-03-01T17:38:02.087Z,8.35
2024-03-01T17:40:30.395Z,8.49
2024-03-01T17:42:58.770Z,8.41
2024-03-01T17:45:27.165Z,8.37
2024-03-01T17:47:56.706Z,8.27
2024-03-01T17:50:24.890Z,8.38
2024-03-01T17:52:53.016Z,8.27
2024-03-01T17:55:21.691Z,8.24
2024-03-01T17:57:49.924Z,8.25
2024-03-01T18:00:18.746Z,8.33
2024-03-01T18:02:46.783Z,8.09
2024-03-01T18:05:16.918Z,8.11
2024-03-01T18:07:45.206Z,8.10
2024-03-01T18:10:16.898Z,8.09
2024-03-01T18:12:44.977Z,8.18
2024-03-01T18:15:13.114Z,8.02
2024-03-01T18:17:41.224Z,8.09
2024-03-01T18:20:10.440Z,8.01
2024-03-01T18:22:41.133Z,8.00
2024-03-01T18:25:12.734Z,7.98
2024-03-01T18:27:42.325Z,7.91
2024-03-01T18:30:12.800Z,7.90
2024-03-01T18:32:41.018Z,7.99
2024-03-01T18:35:10.165Z,7.95
2024-03-01T18:37:39.670Z,8.00
2024-03-01T18:40:09.482Z,7.95
2024-03-01T18:42:37.662Z,7.95
2024-03-01T18:45:07.236Z,7.75
2024-03-01T18:47:35.516Z,7.93
2024-03-01T18:50:04.209Z,7.91
2024-03-01T18:52:32.487Z,7.85
2024-03-01T18:55:02.011Z,7.85
2024-03-01T18:57:30.118Z,7.98
2024-03-01T18:59:59.033Z,7.76
2024-03-01T19:02:28.975Z,7.83
2024-03-01T19:04:59.636Z,7.71
2024-03-01T19:07:29.645Z,7.75
2024-03-01T19:09:57.805Z,7.74
2024-03-01T19:12:27.318Z,7.79
2024-03-01T19:14:55.782Z,7.72
2024-03-01T19:17:23.904Z,7.53
2024-03-01T19:19:52.018Z,7.55
2024-03-01T19:22:20.527Z,7.55
2024-03-01T19:24:50.740Z,7.59
2024-03-01T19:27:20.823Z,7.48
2024-03-01T19:29:52.115Z,7.47
2024-03-01T19:32:20.115Z,7.44
2024-03-01T19:34:48.874Z,7.50
2024-03-01T19:37:17.017Z,7.59
2024-03-01T19:39:45.585Z,7.45
2024-03-01T19:42:13.757Z,7.31
2024-03-01T19:44:42.810Z,7.36
2024-03-01T19:47:12.728Z,7.39
2024-03-01T19:49:42.719Z,7.40
2024-03-01T19:52:13.152Z,7.27
2024-03-01T19:54:41.299Z,7.35
2024-03-01T19:57:09.455Z,7.20
2024-03-01T19:59:40.509Z,7.24
2024-03-01T20:02:09.039Z,7.20
2024-03-01T20:04:38.670Z,7.24
2024-03-01T20:07:07.220Z,7.12
2024-03-01T20:09:35.461Z,7.20
2024-03-01T20:12:03.591Z,7.12
2024-03-01T20:14:31.666Z,7.11
2024-03-01T20:17:00.200Z,7.16
2024-03-01T20:19:28.754Z,7.17
2024-03-01T20:21:58.369Z,7.07
2024-03-01T20:24:26.503Z,7.04
2024-03-01T20:26:54.600Z,7.06
2024-03-01T20:29:23.559Z,7.01
2024-03-01T20:31:52.188Z,7.06
2024-03-01T20:34:20.445Z,7.04
2024-03-01T20:36:48.510Z,7.00
2024-03-01T20:39:18.106Z,6.93
2024-03-01T20:41:46.119Z,7.01
2024-03-01T20:44:14.285Z,6.93
2024-03-01T20:46:43.225Z,7.03
2024-03-01T20:49:11.507Z,7.00
2024-03-01T20:51:39.600Z,7.08
2024-03-01T20:54:11.724Z,6.99
2024-03-01T20:56:41.338Z,6.97
2024-03-01T20:59:09.544Z,6.98
2024-03-01T21:01:37.670Z,6.99
2024-03-01T21:04:06.112Z,6.97
2024-03-01T21:06:35.156Z,6.95
2024-03-01T21:09:06.116Z,6.98
2024-03-01T21:11:34.374Z,7.00
2024-03-01T21:14:04.424Z,6.92
2024-03-01T21:16:32.584Z,7.03
2024-03-01T21:19:01.452Z,7.03
2024-03-01T21:21:29.518Z,6.93
2024-03-01T21:23:57.677Z,6.97
2024-03-01T21:26:25.935Z,7.08
2024-03-01T21:28:54.438Z,7.01
2024-03-01T21:31:24.201Z,6.99
2024-03-01T21:33:52.317Z,6.97
2024-03-01T21:36:20.920Z,7.00
2024-03-01T21:38:49.030Z,7.00
2024-03-01T21:41:17.730Z,6.98
2024-03-01T21:43:45.945Z,7.06
2024-03-01T21:46:14.424Z,7.01
2024-03-01T21:48:44.399Z,6.92
2024-03-01T21:51:12.528Z,6.98
2024-03-01T21:53:40.754Z,7.02
2024-03-01T21:56:08.870Z,7.13
2024-03-01T21:58:37.478Z,7.08
2024-03-01T22:01:06.706Z,7.03
2024-03-01T22:03:35.419Z,6.95
2024-03-01T22:06:06.613Z,7.09
2024-03-01T22:08:34.728Z,6.91
2024-03-01T22:11:02.830Z,6.98
2024-03-01T22:13:31.046Z,6.97
2024-03-01T22:16:02.247Z,7.06
2024-03-01T22:18:30.541Z,7.02
2024-03-01T22:20:58.934Z,7.00
2024-03-01T22:23:28.452Z,6.90
2024-03-01T22:25:56.571Z,6.99
2024-03-01T22:28:24.825Z,6.98
2024-03-01T22:30:53.255Z,6.94
2024-03-01T22:33:21.666Z,6.95
2024-03-01T22:35:49.854Z,6.95
2024-03-01T22:38:18.533Z,7.03
2024-03-01T22:40:49.826Z,7.06
2024-03-01T22:43:17.911Z,6.99
2024-03-01T22:45:46.192Z,6.99
2024-03-01T22:48:14.405Z,7.02
2024-03-01T22:50:42.757Z,7.05
2024-03-01T22:53:15.040Z,7.02
2024-03-01T22:55:43.785Z,6.95
2024-03-01T22:58:14.482Z,6.98
2024-03-01T23:00:45.721Z,7.07
2024-03-01T23:03:18.898Z,7.05
2024-03-01T23:05:49.842Z,7.08
2024-03-01T23:09:00.598Z,7.04
2024-03-01T23:11:38.457Z,6.98
2024-03-01T23:14:17.563Z,6.98
2024-03-01T23:16:45.652Z,6.94
2024-03-01T23:19:15.655Z,7.00
2024-03-01T23:21:44.428Z,6.95
2024-03-01T23:24:12.596Z,6.97
2024-03-01T23:26:40.828Z,6.95
2024-03-01T23:29:10.298Z,7.00
2024-03-01T23:31:38.389Z,6.99
2024-03-01T23:34:06.573Z,6.90
2024-03-01T23:36:34.737Z,7.00
2024-03-01T23:39:03.281Z,6.95
2024-03-01T23:41:31.384Z,6.98
2024-03-01T23:44:00.176Z,6.98
2024-03-01T23:46:30.155Z,6.88
2024-03-01T23:48:59.572Z,7.01
2024-03-01T23:51:27.885Z,7.01
2024-03-01T23:53:56.091Z,7.00
2024-03-01T23:56:24.347Z,7.18
2024-03-01T23:58:52.526Z,7.27
